createdAt,value
2022-09-21T00:01:16.891Z,7.26
2022-09-21T00:03:44.674Z,7.34
2022-09-21T00:06:14.947Z,7.26
2022-09-21T00:08:42.175Z,7.18
2022-09-21T00:11:12.495Z,7.33
2022-09-21T00:13:38.940Z,7.29
2022-09-21T00:16:07.212Z,7.19
2022-09-21T00:18:34.137Z,7.22
2022-09-21T00:21:00.580Z,7.11
2022-09-21T00:23:27.272Z,7.10
2022-09-21T00:26:04.399Z,7.06
2022-09-21T00:28:30.831Z,7.03
2022-09-21T00:31:03.515Z,6.99
2022-09-21T00:33:30.055Z,6.98
2022-09-21T00:36:04.780Z,7.03
2022-09-21T00:38:31.825Z,6.97
2022-09-21T00:40:58.770Z,6.98
2022-09-21T00:43:25.608Z,6.91
2022-09-21T00:46:15.783Z,6.91
2022-09-21T00:48:42.851Z,6.84
2022-09-21T00:51:09.990Z,6.85
2022-09-21T00:53:38.602Z,6.89
2022-09-21T00:56:06.798Z,6.92
2022-09-21T00:58:44.688Z,6.90
2022-09-21T01:01:12.832Z,6.91
2022-09-21T01:03:40.022Z,6.90
2022-09-21T01:06:06.431Z,6.91
2022-09-21T01:08:35.016Z,6.90
2022-09-21T01:11:20.343Z,6.85
2022-09-21T01:13:58.768Z,6.83
2022-09-21T01:16:47.566Z,6.89
2022-09-21T01:19:52.152Z,6.83
2022-09-21T01:22:24.769Z,6.83
2022-09-21T01:25:14.793Z,6.80
2022-09-21T01:27:57.238Z,6.75
2022-09-21T01:30:24.924Z,6.75
2022-09-21T01:32:59.163Z,6.75
2022-09-21T01:35:45.487Z,6.77
2022-09-21T01:38:19.412Z,6.75
2022-09-21T01:40:58.584Z,6.77
2022-09-21T01:43:29.597Z,6.69
2022-09-21T01:46:02.745Z,6.65
2022-09-21T01:48:35.114Z,6.67
2022-09-21T01:51:06.399Z,6.75
2022-09-21T01:53:44.796Z,6.73
2022-09-21T01:56:19.176Z,6.57
2022-09-21T01:58:52.385Z,6.58
2022-09-21T02:01:23.721Z,6.62
2022-09-21T02:03:58.752Z,6.68
2022-09-21T02:06:28.136Z,6.73
2022-09-21T02:08:55.495Z,6.73
2022-09-21T02:11:22.255Z,6.68
2022-09-21T02:13:52.236Z,6.68
2022-09-21T02:16:33.862Z,6.63
2022-09-21T02:19:11.254Z,6.60
2022-09-21T02:21:48.560Z,6.56
2022-09-21T02:24:34.983Z,6.47
2022-09-21T02:27:26.518Z,6.44
2022-09-21T02:30:16.905Z,6.37
2022-09-21T02:33:08.824Z,6.32
2022-09-21T02:36:05.481Z,6.21
2022-09-21T02:38:37.862Z,6.12
2022-09-21T02:41:26.821Z,6.20
2022-09-21T02:44:06.875Z,6.17
2022-09-21T02:46:43.611Z,6.09
2022-09-21T02:49:19.139Z,6.03
2022-09-21T02:51:52.513Z,6.10
2022-09-21T02:54:25.112Z,6.08
2022-09-21T02:56:53.998Z,6.04
2022-09-21T02:59:23.573Z,6.02
2022-09-21T03:01:51.336Z,6.01
2022-09-21T03:04:18.189Z,5.99
2022-09-21T03:06:44.796Z,6.00
2022-09-21T03:09:11.228Z,5.98
2022-09-21T03:11:37.808Z,5.94
2022-09-21T03:14:08.539Z,5.93
2022-09-21T03:16:36.241Z,5.94
2022-09-21T03:19:02.762Z,5.98
2022-09-21T03:21:29.717Z,5.97
2022-09-21T03:23:56.505Z,5.92
2022-09-21T03:26:22.966Z,5.89
2022-09-21T03:28:50.600Z,5.84
2022-09-21T03:31:17.477Z,5.89
2022-09-21T03:33:44.650Z,5.85
2022-09-21T03:36:11.518Z,5.87
2022-09-21T03:38:38.659Z,5.83
2022-09-21T03:41:05.780Z,5.80
2022-09-21T03:43:32.509Z,5.85
2022-09-21T03:45:59.100Z,5.88
2022-09-21T03:48:25.988Z,5.92
2022-09-21T03:50:52.427Z,5.88
2022-09-21T03:53:18.973Z,5.85
2022-09-21T03:55:45.447Z,5.78
2022-09-21T03:58:12.016Z,5.80
2022-09-21T04:00:39.482Z,5.75
2022-09-21T04:03:06.458Z,5.76
2022-09-21T04:05:32.865Z,5.75
2022-09-21T04:08:02.003Z,5.72
2022-09-21T04:10:29.229Z,5.74
2022-09-21T04:13:02.636Z,5.72
2022-09-21T04:15:29.760Z,5.74
2022-09-21T04:17:56.609Z,5.73
2022-09-21T04:20:23.417Z,5.70
2022-09-21T04:22:51.449Z,5.72
2022-09-21T04:25:21.322Z,5.68
2022-09-21T04:28:13.681Z,5.63
2022-09-21T04:30:40.286Z,5.61
2022-09-21T04:33:07.154Z,5.63
2022-09-21T04:35:33.639Z,5.70
2022-09-21T04:38:00.233Z,5.59
2022-09-21T04:40:28.196Z,5.63
2022-09-21T04:42:55.986Z,5.63
2022-09-21T04:45:23.516Z,5.64
2022-09-21T04:47:50.016Z,5.62
2022-09-21T04:50:16.887Z,5.63
2022-09-21T04:52:43.645Z,5.68
2022-09-21T04:55:10.118Z,5.65
2022-09-21T04:57:36.631Z,5.66
2022-09-21T05:00:08.141Z,5.66
2022-09-21T05:02:34.615Z,5.57
2022-09-21T05:05:01.025Z,5.55
2022-09-21T05:07:28.272Z,5.48
2022-09-21T05:10:05.587Z,5.43
2022-09-21T05:12:33.665Z,5.39
2022-09-21T05:15:00.274Z,5.39
2022-09-21T05:17:26.796Z,5.38
2022-09-21T05:19:53.471Z,5.30
2022-09-21T05:22:21.293Z,5.26
2022-09-21T05:24:47.866Z,5.26
2022-09-21T05:27:14.834Z,5.20
2022-09-21T05:29:41.848Z,5.27
2022-09-21T05:32:45.324Z,5.23
2022-09-21T05:35:42.108Z,5.28
2022-09-21T05:38:19.456Z,5.28
2022-09-21T05:40:50.372Z,5.30
2022-09-21T05:43:17.775Z,5.31
2022-09-21T05:45:48.116Z,5.25
2022-09-21T05:48:42.036Z,5.27
2022-09-21T05:51:34.457Z,5.26
2022-09-21T05:54:28.651Z,5.30
2022-09-21T05:57:11.124Z,5.30
2022-09-21T05:59:55.562Z,5.33
2022-09-21T06:02:26.039Z,5.36
2022-09-21T06:04:56.560Z,5.43
2022-09-21T06:07:23.110Z,5.43
2022-09-21T06:09:50.020Z,5.47
2022-09-21T06:12:16.500Z,5.51
2022-09-21T06:14:43.009Z,5.53
2022-09-21T06:17:09.495Z,5.57
2022-09-21T06:19:35.966Z,5.68
2022-09-21T06:22:02.504Z,5.67
2022-09-21T06:24:29.460Z,5.73
2022-09-21T06:26:56.800Z,5.73
2022-09-21T06:29:24.682Z,5.78
2022-09-21T06:31:51.521Z,5.85
2022-09-21T06:34:18.735Z,5.91
2022-09-21T06:36:46.234Z,5.98
2022-09-21T06:39:13.037Z,6.03
2022-09-21T06:41:39.469Z,6.12
2022-09-21T06:44:09.800Z,6.23
2022-09-21T06:46:36.276Z,6.28
2022-09-21T06:49:05.058Z,6.34
2022-09-21T06:51:31.552Z,6.42
2022-09-21T06:53:58.992Z,6.49
2022-09-21T06:56:26.122Z,6.57
2022-09-21T06:58:52.734Z,6.61
2022-09-21T07:01:19.822Z,6.69
2022-09-21T07:03:51.029Z,6.74
2022-09-21T07:06:18.580Z,6.83
2022-09-21T07:11:32.563Z,6.95
2022-09-21T07:13:59.744Z,6.99
2022-09-21T07:16:26.375Z,7.10
2022-09-21T07:18:53.160Z,7.19
2022-09-21T07:21:19.677Z,7.23
2022-09-21T07:23:46.289Z,7.34
2022-09-21T07:26:13.928Z,7.42
2022-09-21T07:28:40.807Z,7.48
2022-09-21T07:31:15.204Z,7.60
2022-09-21T07:33:42.871Z,7.72
2022-09-21T07:36:11.212Z,7.82
2022-09-21T07:38:39.722Z,7.95
2022-09-21T07:41:07.204Z,7.97
2022-09-21T07:43:33.674Z,8.06
2022-09-21T07:46:02.127Z,8.11
2022-09-21T07:48:29.124Z,8.23
2022-09-21T07:51:00.841Z,8.29
2022-09-21T07:53:28.854Z,8.41
2022-09-21T07:56:02.813Z,8.57
2022-09-21T07:58:47.831Z,8.61
2022-09-21T08:01:14.835Z,8.67
2022-09-21T08:03:41.496Z,8.69
2022-09-21T08:06:09.283Z,8.78
2022-09-21T08:08:36.266Z,8.88
2022-09-21T08:11:04.764Z,8.94
2022-09-21T08:13:31.974Z,9.07
2022-09-21T08:16:00.416Z,9.20
2022-09-21T08:18:27.814Z,9.20
2022-09-21T08:21:00.841Z,9.42
2022-09-21T08:23:29.060Z,9.48
2022-09-21T08:26:05.451Z,9.54
2022-09-21T08:28:32.244Z,9.54
2022-09-21T08:31:03.485Z,9.62
2022-09-21T08:33:30.155Z,9.72
2022-09-21T08:35:59.660Z,9.79
2022-09-21T08:38:27.221Z,9.91
2022-09-21T08:40:54.260Z,9.93
2022-09-21T08:43:36.801Z,9.99
2022-09-21T08:46:11.382Z,10.13
2022-09-21T08:48:46.216Z,10.23
2022-09-21T08:51:21.933Z,10.30
2022-09-21T08:53:53.681Z,10.44
2022-09-21T08:56:22.034Z,10.54
2022-09-21T08:58:49.040Z,10.69
2022-09-21T09:01:30.825Z,10.69
2022-09-21T09:04:03.407Z,10.70
2022-09-21T09:06:49.590Z,10.76
2022-09-21T09:09:42.023Z,10.99
2022-09-21T09:12:26.465Z,11.05
2022-09-21T09:15:12.508Z,11.13
2022-09-21T09:17:57.666Z,11.23
2022-09-21T09:20:43.567Z,11.41
2022-09-21T09:23:19.551Z,11.51
2022-09-21T09:25:50.041Z,11.64
2022-09-21T09:28:33.237Z,11.80
2022-09-21T09:31:21.751Z,11.86
2022-09-21T09:33:58.957Z,11.96
2022-09-21T09:36:56.635Z,12.04
2022-09-21T09:39:19.975Z,12.30
2022-09-21T09:41:56.783Z,12.39
2022-09-21T09:44:48.071Z,12.42
2022-09-21T09:47:33.151Z,12.74
2022-09-21T09:50:20.491Z,12.78
2022-09-21T09:52:49.251Z,12.81
2022-09-21T09:55:24.325Z,12.87
2022-09-21T09:57:51.910Z,12.93
2022-09-21T10:00:20.729Z,13.11
2022-09-21T10:02:59.575Z,13.19
2022-09-21T10:05:28.868Z,13.33
2022-09-21T10:07:57.885Z,13.44
2022-09-21T10:10:40.326Z,13.56
2022-09-21T10:13:27.052Z,13.75
2022-09-21T10:16:13.995Z,13.81
2022-09-21T10:18:48.012Z,13.90
2022-09-21T10:21:24.831Z,13.87
2022-09-21T10:23:57.146Z,13.98
2022-09-21T10:26:23.814Z,14.04
2022-09-21T10:28:58.154Z,14.09
2022-09-21T10:31:27.252Z,14.04
2022-09-21T10:34:16.067Z,14.22
2022-09-21T10:36:54.692Z,14.39
2022-09-21T10:39:30.803Z,14.53
2022-09-21T10:42:07.685Z,14.55
2022-09-21T10:44:45.600Z,14.68
2022-09-21T10:47:31.055Z,14.69
2022-09-21T10:50:00.442Z,14.77
2022-09-21T10:52:38.563Z,14.92
2022-09-21T10:55:07.098Z,14.93
2022-09-21T10:57:34.531Z,14.99
2022-09-21T11:00:26.219Z,14.99
2022-09-21T11:02:55.665Z,15.03
2022-09-21T11:05:33.335Z,15.21
2022-09-21T11:08:16.457Z,15.40
2022-09-21T11:11:02.651Z,15.45
2022-09-21T11:14:12.252Z,15.50
2022-09-21T11:16:53.104Z,15.53
2022-09-21T11:19:47.626Z,15.57
2022-09-21T11:22:27.635Z,15.69
2022-09-21T11:25:28.619Z,15.76
2022-09-21T11:28:04.360Z,15.85
2022-09-21T11:30:41.708Z,15.88
2022-09-21T11:33:33.025Z,15.92
2022-09-21T11:36:13.522Z,15.87
2022-09-21T11:38:56.017Z,15.95
2022-09-21T11:42:00.995Z,15.81
2022-09-21T11:44:39.644Z,15.92
2022-09-21T11:47:12.294Z,15.93
2022-09-21T11:50:07.665Z,16.07
2022-09-21T11:53:05.719Z,16.20
2022-09-21T11:55:53.774Z,16.30
2022-09-21T11:58:45.909Z,16.20
2022-09-21T12:01:34.600Z,16.19
2022-09-21T12:04:19.776Z,16.35
2022-09-21T12:06:53.347Z,16.41
2022-09-21T12:09:32.189Z,16.39
2022-09-21T12:12:21.790Z,16.29
2022-09-21T12:15:02.182Z,16.34
2022-09-21T12:17:44.113Z,16.43
2022-09-21T12:20:19.563Z,16.55
2022-09-21T12:22:49.747Z,16.68
2022-09-21T12:25:23.735Z,16.79
2022-09-21T12:27:55.201Z,16.68
2022-09-21T12:30:24.026Z,16.56
2022-09-21T12:33:07.082Z,16.49
2022-09-21T12:35:56.954Z,16.70
2022-09-21T12:38:29.176Z,16.78
2022-09-21T12:41:36.076Z,16.97
2022-09-21T12:44:18.434Z,16.48
2022-09-21T12:47:09.112Z,16.30
2022-09-21T12:49:45.283Z,16.52
2022-09-21T12:52:21.620Z,16.69
2022-09-21T12:54:56.992Z,16.47
2022-09-21T12:58:14.225Z,16.28
2022-09-21T13:01:01.097Z,15.74
2022-09-21T13:03:56.232Z,15.57
2022-09-21T13:06:41.050Z,15.45
2022-09-21T13:09:12.780Z,15.29
2022-09-21T13:11:59.727Z,15.17
2022-09-21T13:14:36.232Z,14.94
2022-09-21T13:17:05.852Z,14.84
2022-09-21T13:19:35.304Z,14.92
2022-09-21T13:22:19.766Z,14.81
2022-09-21T13:25:03.504Z,14.99
2022-09-21T13:28:09.099Z,15.36
2022-09-21T13:30:45.513Z,15.68
2022-09-21T13:33:18.111Z,15.88
2022-09-21T13:35:50.783Z,16.07
2022-09-21T13:38:40.902Z,16.24
2022-09-21T13:41:13.112Z,16.49
2022-09-21T13:43:58.477Z,16.47
2022-09-21T13:46:36.648Z,16.54
2022-09-21T13:49:10.620Z,16.70
2022-09-21T13:52:07.350Z,16.81
2022-09-21T13:54:48.628Z,16.84
2022-09-21T13:57:27.316Z,16.82
2022-09-21T14:00:17.050Z,17.02
2022-09-21T14:02:54.894Z,16.80
2022-09-21T14:05:33.935Z,16.89
2022-09-21T14:08:05.178Z,16.88
2022-09-21T14:10:36.098Z,16.95
2022-09-21T14:13:07.356Z,16.71
2022-09-21T14:15:37.671Z,16.37
2022-09-21T14:18:19.037Z,16.05
2022-09-21T14:21:11.589Z,15.84
2022-09-21T14:23:39.254Z,15.71
2022-09-21T14:26:36.749Z,15.71
2022-09-21T14:29:44.865Z,15.91
2022-09-21T14:32:23.302Z,16.07
2022-09-21T14:34:56.240Z,16.25
2022-09-21T14:37:38.116Z,16.40
2022-09-21T14:40:17.943Z,16.31
2022-09-21T14:42:46.616Z,16.44
2022-09-21T14:45:24.961Z,16.18
2022-09-21T14:47:52.068Z,16.01
2022-09-21T14:50:30.713Z,16.13
2022-09-21T14:53:32.427Z,16.26
2022-09-21T14:56:10.103Z,16.36
2022-09-21T14:58:58.224Z,16.34
2022-09-21T15:01:37.819Z,16.36
2022-09-21T15:04:29.343Z,16.35
2022-09-21T15:07:54.701Z,16.38
2022-09-21T15:10:45.674Z,16.13
2022-09-21T15:13:36.192Z,15.84
2022-09-21T15:16:23.751Z,15.64
2022-09-21T15:18:59.990Z,15.55
2022-09-21T15:21:29.224Z,15.67
2022-09-21T15:23:57.064Z,15.71
2022-09-21T15:26:29.065Z,15.88
2022-09-21T15:29:12.539Z,15.89
2022-09-21T15:31:41.444Z,15.88
2022-09-21T15:34:10.777Z,15.86
2022-09-21T15:36:40.356Z,15.99
2022-09-21T15:39:07.422Z,15.89
2022-09-21T15:41:45.883Z,15.84
2022-09-21T15:44:16.823Z,15.84
2022-09-21T15:46:48.267Z,15.76
2022-09-21T15:49:20.722Z,15.60
2022-09-21T15:51:53.536Z,15.54
2022-09-21T15:54:23.079Z,15.51
2022-09-21T15:56:49.642Z,15.50
2022-09-21T15:59:20.885Z,15.42
2022-09-21T16:01:50.693Z,15.46
2022-09-21T16:04:23.778Z,15.44
2022-09-21T16:07:05.576Z,15.28
2022-09-21T16:09:45.532Z,15.10
2022-09-21T16:12:34.419Z,14.94
2022-09-21T16:15:07.969Z,14.88
2022-09-21T16:17:38.678Z,14.83
2022-09-21T16:20:14.777Z,14.71
2022-09-21T16:22:54.876Z,14.55
2022-09-21T16:25:24.128Z,14.44
2022-09-21T16:28:03.288Z,14.30
2022-09-21T16:30:46.182Z,14.16
2022-09-21T16:33:42.284Z,14.04
2022-09-21T16:36:33.883Z,13.96
2022-09-21T16:39:01.304Z,13.92
2022-09-21T16:41:35.546Z,13.83
2022-09-21T16:44:03.171Z,13.79
2022-09-21T16:46:31.919Z,13.79
2022-09-21T16:49:00.670Z,13.76
2022-09-21T16:51:28.470Z,13.76
2022-09-21T16:53:58.500Z,13.71
2022-09-21T16:56:25.399Z,13.64
2022-09-21T16:58:52.200Z,13.55
2022-09-21T17:01:20.660Z,13.50
2022-09-21T17:03:48.005Z,13.42
2022-09-21T17:06:19.663Z,13.36
2022-09-21T17:08:48.274Z,13.29
2022-09-21T17:11:21.706Z,13.22
2022-09-21T17:13:52.056Z,13.16
2022-09-21T17:16:20.271Z,13.05
2022-09-21T17:18:48.600Z,12.92
2022-09-21T17:21:16.875Z,12.84
2022-09-21T17:23:43.354Z,12.70
2022-09-21T17:26:16.632Z,12.61
2022-09-21T17:28:44.218Z,12.50
2022-09-21T17:31:19.034Z,12.45
2022-09-21T17:33:47.860Z,12.33
2022-09-21T17:36:15.987Z,12.26
2022-09-21T17:38:43.287Z,12.26
2022-09-21T17:41:22.010Z,12.21
2022-09-21T17:44:40.007Z,12.11
2022-09-21T17:47:14.499Z,11.98
2022-09-21T17:49:41.132Z,11.88
2022-09-21T17:52:52.531Z,11.75
2022-09-21T17:55:20.160Z,11.65
2022-09-21T17:58:02.273Z,11.57
2022-09-21T18:00:42.867Z,11.49
2022-09-21T18:03:22.139Z,11.44
2022-09-21T18:05:51.244Z,11.37
2022-09-21T18:08:18.669Z,11.27
2022-09-21T18:10:54.832Z,11.18
2022-09-21T18:13:35.756Z,11.13
2022-09-21T18:16:26.957Z,11.05
2022-09-21T18:19:14.710Z,11.00
2022-09-21T18:21:43.798Z,10.93
2022-09-21T18:24:33.570Z,10.86
2022-09-21T18:27:00.824Z,10.81
2022-09-21T18:29:40.867Z,10.78
2022-09-21T18:32:23.008Z,10.69
2022-09-21T18:34:51.142Z,10.60
2022-09-21T18:37:29.822Z,10.65
2022-09-21T18:40:24.867Z,10.61
2022-09-21T18:42:59.536Z,10.53
2022-09-21T18:45:36.773Z,10.46
2022-09-21T18:48:53.733Z,10.37
2022-09-21T18:51:45.619Z,10.33
2022-09-21T18:54:20.276Z,10.32
2022-09-21T18:56:47.453Z,10.31
2022-09-21T18:59:15.583Z,10.29
2022-09-21T19:01:44.256Z,10.23
2022-09-21T19:04:14.800Z,10.21
2022-09-21T19:07:01.594Z,10.13
2022-09-21T19:09:38.141Z,10.06
2022-09-21T19:12:23.375Z,10.02
2022-09-21T19:15:07.805Z,9.97
2022-09-21T19:18:10.956Z,9.97
2022-09-21T19:20:49.837Z,9.92
2022-09-21T19:23:31.150Z,9.86
2022-09-21T19:26:16.199Z,9.82
2022-09-21T19:28:55.498Z,9.79
2022-09-21T19:31:22.563Z,9.73
2022-09-21T19:33:56.378Z,9.64
2022-09-21T19:36:24.210Z,9.60
2022-09-21T19:38:51.316Z,9.57
2022-09-21T19:41:40.894Z,9.52
2022-09-21T19:44:50.600Z,9.51
2022-09-21T19:47:30.067Z,9.50
2022-09-21T19:50:16.257Z,9.47
2022-09-21T19:52:43.493Z,9.50
2022-09-21T19:55:41.578Z,9.45
2022-09-21T19:58:27.716Z,9.36
2022-09-21T20:00:59.636Z,9.34
2022-09-21T20:03:35.292Z,9.31
2022-09-21T20:06:05.940Z,9.26
2022-09-21T20:08:46.325Z,9.23
2022-09-21T20:11:21.276Z,9.20
2022-09-21T20:14:21.312Z,9.15
2022-09-21T20:16:54.083Z,9.11
2022-09-21T20:19:46.413Z,9.05
2022-09-21T20:22:14.901Z,8.98
2022-09-21T20:24:50.588Z,8.93
2022-09-21T20:27:37.464Z,8.90
2022-09-21T20:30:07.943Z,8.87
2022-09-21T20:32:36.423Z,8.81
2022-09-21T20:35:03.706Z,8.75
2022-09-21T20:37:30.236Z,8.74
2022-09-21T20:39:57.239Z,8.75
2022-09-21T20:42:25.091Z,8.71
2022-09-21T20:44:52.507Z,8.63
2022-09-21T20:47:20.221Z,8.65
2022-09-21T20:49:48.446Z,8.68
2022-09-21T20:52:17.305Z,8.60
2022-09-21T20:54:48.932Z,8.55
2022-09-21T20:57:17.420Z,8.51
2022-09-21T20:59:44.921Z,8.45
2022-09-21T21:02:13.282Z,8.43
2022-09-21T21:04:40.164Z,8.48
2022-09-21T21:07:07.200Z,8.44
2022-09-21T21:09:33.754Z,8.41
2022-09-21T21:12:00.438Z,8.35
2022-09-21T21:14:26.894Z,8.29
2022-09-21T21:16:53.430Z,8.27
2022-09-21T21:19:20.331Z,8.25
2022-09-21T21:21:47.270Z,8.35
2022-09-21T21:24:32.457Z,8.36
2022-09-21T21:27:03.246Z,8.31
2022-09-21T21:29:31.886Z,8.28
2022-09-21T21:31:59.699Z,8.24
2022-09-21T21:34:27.064Z,8.22
2022-09-21T21:36:53.652Z,8.18
2022-09-21T21:39:20.292Z,8.11
2022-09-21T21:41:47.228Z,8.09
2022-09-21T21:44:13.742Z,8.06
2022-09-21T21:46:40.134Z,8.05
2022-09-21T21:49:06.996Z,8.09
2022-09-21T21:51:33.689Z,8.03
2022-09-21T21:54:03.620Z,8.03
2022-09-21T21:56:30.228Z,8.07
2022-09-21T21:58:57.303Z,8.00
2022-09-21T22:01:27.035Z,7.95
2022-09-21T22:04:01.005Z,7.95
2022-09-21T22:06:29.583Z,7.95
2022-09-21T22:08:57.486Z,7.93
2022-09-21T22:11:25.758Z,7.92
2022-09-21T22:13:56.442Z,7.91
2022-09-21T22:16:24.118Z,7.90
2022-09-21T22:18:52.398Z,7.80
2022-09-21T22:21:25.422Z,7.64
2022-09-21T22:23:53.990Z,7.55
2022-09-21T22:26:21.388Z,7.55
2022-09-21T22:28:50.659Z,7.48
2022-09-21T22:31:20.578Z,7.44
2022-09-21T22:33:48.305Z,7.48
2022-09-21T22:36:17.829Z,7.44
2022-09-21T22:38:46.302Z,7.48
2022-09-21T22:41:17.254Z,7.48
2022-09-21T22:43:45.155Z,7.49
2022-09-21T22:46:12.412Z,7.49
2022-09-21T22:48:38.884Z,7.38
2022-09-21T22:51:05.949Z,7.29
2022-09-21T22:53:32.629Z,7.25
2022-09-21T22:56:10.275Z,7.29
2022-09-21T22:58:39.899Z,7.29
2022-09-21T23:01:09.091Z,7.23
2022-09-21T23:03:35.619Z,7.20
2022-09-21T23:06:02.544Z,7.12
2022-09-21T23:08:29.254Z,7.13
2022-09-21T23:11:04.393Z,7.17
2022-09-21T23:13:30.938Z,7.16
2022-09-21T23:16:05.806Z,7.14
2022-09-21T23:18:33.019Z,7.13
2022-09-21T23:21:03.948Z,7.13
2022-09-21T23:23:32.341Z,7.08
2022-09-21T23:26:06.154Z,7.03
2022-09-21T23:28:34.320Z,6.95
2022-09-21T23:31:05.406Z,6.95
2022-09-21T23:33:37.296Z,6.96
2022-09-21T23:36:05.067Z,6.98
2022-09-21T23:38:32.428Z,6.91
2022-09-21T23:41:12.906Z,6.94
2022-09-21T23:43:41.215Z,6.91
2022-09-21T23:46:09.724Z,6.93
2022-09-21T23:48:36.753Z,6.86
2022-09-21T23:51:04.438Z,6.86
2022-09-21T23:53:31.646Z,6.81
2022-09-21T23:55:58.948Z,6.80
2022-09-21T23:58:27.126Z,6.78
